This is the latest recevied weather packets stored in our database for station/object JG6YPS-13. If no packets are shown the sender has not sent any weather packets the latest 10 day(s).
| Time | Temp. | Humidity | Pressure | Rain* | Wind** | Luminosity | Snow |
|---|---|---|---|---|---|---|---|
| 1788139553 | 104° F | 80% | 757.9 mmHg | 0 in | - | - | - |
| 1788138953 | 100° F | 84% | 758 mmHg | 0 in | - | - | - |
| 1788138352 | 101° F | 86% | 758.1 mmHg | 0 in | - | - | - |
| 1788137751 | 101° F | 90% | 758.2 mmHg | 0 in | - | - | - |
| 1788137150 | 94° F | 99% | 758.2 mmHg | 0 in | - | - | - |
| 1788136549 | 97° F | 92% | 758.2 mmHg | 0 in | - | - | - |
| 1788135948 | 99° F | 88% | 758.2 mmHg | 0 in | - | - | - |
| 1788135347 | 104° F | 84% | 758.1 mmHg | 0 in | - | - | - |
| 1788134746 | 103° F | 84% | 758 mmHg | 0 in | - | - | - |
| 1788134145 | 101° F | 89% | 758.2 mmHg | 0 in | - | - | - |
| 1788133544 | 100° F | 97% | 758.2 mmHg | 0 in | - | - | - |
| 1788132943 | 100° F | 95% | 758.2 mmHg | 0 in | - | - | - |
| 1788132342 | 97° F | 99% | 758.2 mmHg | 0 in | - | - | - |
| 1788131742 | 93° F | 99% | 758.2 mmHg | 0 in | - | - | - |
| 1788131141 | 91° F | 99% | 758.2 mmHg | 0 in | - | - | - |
| 1788130541 | 91° F | 99% | 758.2 mmHg | 0 in | - | - | - |
| 1788129940 | 89° F | 99% | 758.2 mmHg | 0 in | - | - | - |
| 1788129340 | 87° F | 99% | 758.2 mmHg | 0 in | - | - | - |
| 1788128740 | 87° F | 99% | 758.2 mmHg | 0 in | - | - | - |
| 1788128139 | 84° F | 99% | 758.2 mmHg | 0 in | - | - | - |
| 1788127539 | 83° F | 99% | 758.2 mmHg | 0 in | - | - | - |
| 1788126939 | 81° F | 99% | 758.1 mmHg | 0 in | - | - | - |
| 1788126339 | 80° F | 99% | 758 mmHg | 0 in | - | - | - |
| 1788125739 | 79° F | 99% | 758 mmHg | 0 in | - | - | - |
| 1788125139 | 79° F | 99% | 758 mmHg | 0 in | - | - | - |
* Rain latest hour (hover to see other rain measurements)
** Current wind speed in m/s (hover to see current wind gust speed)